Métars Prochent de la station Meteo-Danaklab-Domdidier

Ci-dessous, Les Metars prochent de la station Meteo-Danaklab-Domdidier

Un METAR (METeorological Aerodrome Report1) est un rapport d'observation (et non de prévision) météorologique pour l'aviation. Ce code international a été développé par les membres de l'Organisation de l'aviation civile internationale et est approuvé par l'Organisation météorologique mondiale. Les données de base sont communes à tous les pays mais certaines sections du code sont sujettes à des variantes locales.

Les messages METAR sont mis à jour régulièrement, souvent entre 30 minutes à 60 minutes pendant les heures d'ouverture du terrain, selon son équipement et l'éventualité d'un changement important du temps observé.


LSMP - Payerne (mil/Aut, Switzerland
Distance de la station: NNO 85km
Mise à jour: 13/04/2024 21:20
clair
clair
 Wind from variable
Vent: variable 2 km/h
Température: 16°C
Point de rosée: 10°C
Humidité: 68%
Baromètre: 1026 hPa
Clouds: clair
Visibility: 10 km
2024/04/13 19:20 LSMP 131920Z AUTO VRB01KT 9999NDV NCD 16/10 Q1026 RMK
LSZB - Bern/Belp, Switzerland
Distance de la station: NNE 98km
Mise à jour: 13/04/2024 21:20
clair
clair
 Wind from variable
Vent: variable 6 km/h
Température: 12°C
Point de rosée: 9°C
Humidité: 82%
Baromètre: 1026 hPa
Récapitulatifs: clair
Visibility: supérieure à 10 km
2024/04/13 19:20 LSZB 131920Z VRB03KT CAVOK 12/09 Q1026
 
LSGG - Geneva/Cointrin, Switzerland
Distance de la station: ONO 81km
Mise à jour: 13/04/2024 21:20
clair
clair
 Wind from ENE
Vent: ENE 4 km/h
Température: 16°C
Point de rosée: 10°C
Humidité: 68%
Baromètre: 1026 hPa
Récapitulatifs: clair
Visibility: supérieure à 10 km
2024/04/13 19:20 LSGG 131920Z 07002KT CAVOK 16/10 Q1026 NOSIG
LFLP - Annecy/Meythet, France
Distance de la station: OSO 83km
Mise à jour: 13/04/2024 21:30
clair
clair
 Wind from NNE
Vent: NNE 6 km/h
Température: 16°C
Point de rosée: 12°C
Humidité: 77%
Baromètre: 1027 hPa
Récapitulatifs: clair
Visibility: supérieure à 10 km
2024/04/13 19:30 LFLP 131930Z AUTO 02003KT CAVOK 16/12 Q1027
 
LSGC - Les Eplatures, Switzerland
Distance de la station: NNO 115km
Mise à jour: 13/04/2024 21:20
clair
clair
 Wind from variable
Vent: variable 2 km/h
Température: 13°C
Point de rosée: 9°C
Humidité: 77%
Baromètre: 1029 hPa
Récapitulatifs: clair
Visibility: supérieure à 10 km
2024/04/13 19:20 LSGC 131920Z AUTO VRB01KT CAVOK 13/09 Q1029
LSGS - Sion (mil/Civ/Au, Switzerland
Distance de la station: NE 22km
Mise à jour: 13/04/2024 21:20
clair
clair
 Wind from E
Vent: E 6 km/h
Température: 16°C
Point de rosée: 10°C
Humidité: 68%
Baromètre: 1027 hPa
Récapitulatifs: clair
Visibility: supérieure à 10 km
2024/04/13 19:20 LSGS 131920Z AUTO 10003KT CAVOK 16/10 Q1027
 
LSMS - Sion (mil), Switzerland
Distance de la station: NE 22km
Mise à jour: 27/03/2019 11:50
Pas à jour
clair
clair
 Wind from SO
Vent: SO 7 km/h
Température: 9°C
Wind Chill: 8°C
Point de rosée: -4°C
Humidité: 40%
Baromètre: 1025 hPa
Récapitulatifs: clair
Visibility: supérieure à 10 km
2019/03/27 10:50 LSMS 271050Z 23004KT 200V280 CAVOK 09/M04 Q1025 RMK BLU+
LSMM - Meiringen, Switzerland
Distance de la station: NE 107km
Mise à jour: 13/04/2024 21:20
clair
clair
 Wind from E
Vent: E 9 km/h
Température: 13°C
Point de rosée: 8°C
Humidité: 72%
Baromètre: 1027 hPa
Clouds: clair
Visibility: 10 km
2024/04/13 19:20 LSMM 131920Z AUTO 09005KT 9999NDV NCD 13/08 Q1027 RMK
 
LIMW - Aosta Arpt, Italy
Distance de la station: SSE 42km
Mise à jour: 13/04/2024 20:20
Pas à jour
clair
clair
 Wind from ENE
Vent: ENE 7 km/h
Température: 21°C
Point de rosée: 12°C
Humidité: 57%
Baromètre: 1026 hPa
Récapitulatifs: clair
Visibility: supérieure à 10 km
2024/04/13 18:20 LIMW 131820Z 06004KT 020V120 CAVOK 21/12 Q1026
LIMH - Pian Rosa (mtn T, Italy
Distance de la station: ESE 46km
Mise à jour: 13/04/2024 20:55

 Wind from variable
Vent: variable 0 km/h
Température: 3°C
Point de rosée: -19°C
Humidité: 18%
Baromètre: 1040 hPa
2024/04/13 18:55 LIMH 131855Z AUTO /////KT //// 03/M19 Q1040
 
LFLB - Chambery/Aix Bai, France
Distance de la station: OSO 109km
Mise à jour: 13/04/2024 21:30
clair
clair
 Wind from calm
Vent: calme
Température: 15°C
Point de rosée: 11°C
Humidité: 77%
Baromètre: 1025 hPa
Récapitulatifs: clair
Visibility: supérieure à 10 km
2024/04/13 19:30 LFLB 131930Z AUTO 00000KT CAVOK 15/11 Q1025
LIMF - Torino/Caselle, Italy
Distance de la station: SSE 103km
Mise à jour: 13/04/2024 21:20
clair
clair
 Wind from variable
Vent: variable 4 km/h
Température: 23°C
Point de rosée: 15°C
Humidité: 61%
Baromètre: 1025 hPa
Récapitulatifs: clair
Visibility: supérieure à 10 km
2024/04/13 19:20 LIMF 131920Z VRB02KT CAVOK 23/15 Q1025
 
LIMA - Aeritalia, Italy
Distance de la station: SSE 116km
Mise à jour: 13/04/2024 18:50
Pas à jour
clair
clair
 Wind from SSO
Vent: SSO 7 km/h
Température: 26°C
Point de rosée: 11°C
Humidité: 39%
Baromètre: 1025 hPa
Récapitulatifs: clair
Visibility: supérieure à 10 km
2024/04/13 16:50 LIMA 131650Z 21004KT 150V220 CAVOK 26/11 Q1025